Columbia Gorge Regional the Dalles Municipal Airport
KDLS : now visible

Airfield :











YOU CAN JOIN US ON...

 
LOGIN :

Register | Disclaimer

   EN    FR    IT 

 









Legend :    VFR   Marginal VFR   IFR   Intensive IFR   Very Intensive IFR
Visi :
Ceiling :
>= 8 km
>= 3000ft
5 to 8 km
1000 to 3000 ft
1500m to 5 km
500 to 1000 ft
800 to 1500m
200 to 500 ft
< 800m
< 200 ft
Symbols :   Thunderstorms  Fog  Heavy snow  Heavy precipitations  Wind > 20 kt






- Airport Elevation : 247 ft


KDLS - Columbia Gorge Regional the Dalles Municipal

CURRENT METAR :
  • 151553Z AUTO 00000KT 10SM BKN017 01/M01 A3014 RMK AO2 SLP207 T00111011

EXPIRED METARs :
  • 151513Z AUTO 00000KT 10SM BKN019 BKN050 01/M01 A3012 RMK AO2 T00111006
  • 151453Z AUTO 00000KT 10SM FEW017 OVC050 01/M01 A3011 RMK AO2 SLP199 T00061011 51010
  • 151411Z AUTO 00000KT 10SM SCT012 BKN050 00/M01 A3010 RMK AO2 T00001011
  • 151353Z AUTO 00000KT 10SM BKN013 M01/M02 A3010 RMK AO2 SLP195 T10111017

TAF KDLS
Valid from the 15 at 14:00 until the 16 at 12:00 UTC


151415Z 1514/1612 30004KT P6SM SCT010 BKN050
FM151800 30008KT P6SM FEW025 SCT050
FM160000 VRB04KT P6SM FEW015 SCT200



MET'MAP, your aeronautical weather chart ! - Copyright ORBIFLY December 2007 - Disclaimer

ORBIFLY MET'MAP TEAM :

Programming & Development : Alexandra Zaïnal
Concept & original design : Baudouin d'Aumeries
Assistance for programming : Marc-Olivier Méhu
Technical & hardware support : Manuel Goepfert

Contact : metmap@orbifly.com




SOURCES & CREDITS :

   NOAA       Earth
Advisory